Time;durP1;ratioP1;P1;durP2;ratioP2;P2;SDS_P1;SDS_P2;PMS_P1;PMS_P2;Temp;Humidity;BMP_temperature;BMP_pressure;BME280_temperature;BME280_humidity;BME280_pressure;Samples;Min_cycle;Max_cycle;Signal;HPM_P1;HPM_P2
2022/07/28 00:00:27;;;;;;;4.35;3.90;;;17.50;92.40;;;;;;4963540;28;20121;-84
2022/07/28 00:02:53;;;;;;;4.20;3.80;;;17.50;92.60;;;;;;4991479;28;20026;-84
2022/07/28 00:05:19;;;;;;;5.60;3.42;;;17.50;92.70;;;;;;4974326;28;20034;-84
2022/07/28 00:07:45;;;;;;;8.88;3.78;;;17.50;92.80;;;;;;5000926;28;20077;-83
2022/07/28 00:10:11;;;;;;;4.05;3.75;;;17.40;93.00;;;;;;5006845;28;20475;-84
2022/07/28 00:12:38;;;;;;;4.18;3.78;;;17.40;93.10;;;;;;4974391;28;20054;-84
2022/07/28 00:15:05;;;;;;;4.70;3.80;;;17.30;93.30;;;;;;4991003;28;20026;-84
2022/07/28 00:17:31;;;;;;;4.95;3.90;;;17.30;93.50;;;;;;4995779;28;20114;-83
2022/07/28 00:19:57;;;;;;;4.63;4.22;;;17.20;93.80;;;;;;4981617;28;20023;-83
2022/07/28 00:22:22;;;;;;;4.25;3.92;;;17.20;94.10;;;;;;4991661;28;20031;-84
2022/07/28 00:24:48;;;;;;;4.82;4.25;;;17.20;94.20;;;;;;4979440;28;20007;-84
2022/07/28 00:27:15;;;;;;;4.15;3.75;;;17.10;94.50;;;;;;4993199;28;20019;-83
2022/07/28 00:29:41;;;;;;;4.70;4.30;;;17.10;94.70;;;;;;4974218;28;20047;-84
2022/07/28 00:32:07;;;;;;;7.22;5.22;;;17.10;94.80;;;;;;5000172;28;20010;-84
2022/07/28 00:34:33;;;;;;;4.07;3.78;;;17.10;94.90;;;;;;4996062;28;20034;-83
2022/07/28 00:36:58;;;;;;;4.93;4.38;;;17.00;95.20;;;;;;4977642;28;20073;-85
2022/07/28 00:39:24;;;;;;;4.72;4.32;;;17.00;95.40;;;;;;4975372;28;20039;-84
2022/07/28 00:41:50;;;;;;;6.43;4.57;;;16.90;95.70;;;;;;4973435;28;20511;-84
2022/07/28 00:44:15;;;;;;;6.03;3.95;;;16.90;96.00;;;;;;4991432;28;20042;-84
2022/07/28 00:46:41;;;;;;;4.88;4.45;;;16.90;96.20;;;;;;4989978;28;20050;-84
2022/07/28 00:49:07;;;;;;;4.93;4.28;;;16.80;96.40;;;;;;4990777;28;20101;-84
2022/07/28 00:51:33;;;;;;;8.25;4.40;;;16.70;96.80;;;;;;4998902;28;20102;-83
2022/07/28 00:53:59;;;;;;;7.90;4.82;;;16.70;97.10;;;;;;4986943;28;20055;-83
2022/07/28 00:56:24;;;;;;;4.65;4.18;;;16.70;97.30;;;;;;4979655;28;20089;-84
2022/07/28 00:58:50;;;;;;;7.95;5.22;;;16.60;97.60;;;;;;4989794;28;20075;-83
2022/07/28 01:01:18;;;;;;;6.82;5.28;;;16.60;97.90;;;;;;4991154;28;20210;-84
2022/07/28 01:04:00;;;;;;;7.70;5.07;;;16.60;98.10;;;;;;4992398;28;20027;-83
2022/07/28 01:06:38;;;;;;;;;;;16.50;98.30;;;;;;4975394;28;20031;-83
2022/07/28 01:09:28;;;;;;;5.88;4.68;;;16.50;98.60;;;;;;4975970;28;20445;-83
2022/07/28 01:12:06;;;;;;;6.28;5.72;;;16.50;98.70;;;;;;4994496;28;20030;-84
2022/07/28 01:14:46;;;;;;;5.25;4.75;;;16.50;98.80;;;;;;4995234;28;20031;-82
2022/07/28 01:18:01;;;;;;;5.80;5.25;;;16.50;99.00;;;;;;4979919;28;20031;-83
2022/07/28 01:20:44;;;;;;;6.00;5.40;;;16.50;99.20;;;;;;4962726;29;20046;-83
2022/07/28 01:23:31;;;;;;;6.63;5.93;;;16.50;99.30;;;;;;4959891;28;20038;-84
2022/07/28 01:26:08;;;;;;;6.30;5.53;;;16.50;99.50;;;;;;4958427;29;20023;-84
2022/07/28 01:29:13;;;;;;;6.68;5.47;;;16.50;99.60;;;;;;4990419;28;20019;-83
2022/07/28 01:31:42;;;;;;;6.55;5.90;;;16.40;99.80;;;;;;4974952;28;20031;-83
2022/07/28 01:34:13;;;;;;;7.43;5.57;;;16.40;99.90;;;;;;4992039;28;20018;-83
2022/07/28 01:36:44;;;;;;;6.80;6.10;;;16.40;99.90;;;;;;4993738;28;20031;-83
2022/07/28 01:39:12;;;;;;;7.10;6.32;;;16.50;99.90;;;;;;4976493;28;20054;-83
2022/07/28 01:41:40;;;;;;;8.23;6.20;;;16.50;99.90;;;;;;4993042;28;20034;-84
2022/07/28 01:44:10;;;;;;;7.60;6.35;;;16.50;99.90;;;;;;4998965;28;20023;-83
2022/07/28 01:46:37;;;;;;;9.70;7.10;;;16.50;99.90;;;;;;5013020;28;20015;-84
2022/07/28 01:49:03;;;;;;;8.25;6.50;;;16.60;99.90;;;;;;4993167;28;20033;-83
2022/07/28 01:51:31;;;;;;;10.38;7.63;;;16.60;99.90;;;;;;4999349;28;20019;-84
2022/07/28 01:53:59;;;;;;;6.80;6.10;;;16.60;99.90;;;;;;4998617;28;20041;-84
2022/07/28 01:56:27;;;;;;;7.10;6.13;;;16.60;99.90;;;;;;4997638;28;20034;-83
2022/07/28 01:58:56;;;;;;;7.53;6.47;;;16.60;99.90;;;;;;4981061;28;20365;-82
2022/07/28 02:01:24;;;;;;;7.65;6.70;;;16.60;99.90;;;;;;4981012;28;20030;-83
2022/07/28 02:03:51;;;;;;;7.07;6.38;;;16.60;99.90;;;;;;4981557;28;20033;-83
2022/07/28 02:06:20;;;;;;;7.55;6.68;;;16.60;99.90;;;;;;4999091;28;20038;-83
2022/07/28 02:08:48;;;;;;;8.95;6.50;;;16.60;99.90;;;;;;4999118;28;20078;-84
2022/07/28 02:13:58;;;;;;;10.40;7.55;;;16.50;99.90;;;;;;4998338;28;20029;-85
2022/07/28 02:16:26;;;;;;;12.77;8.13;;;16.50;99.90;;;;;;4990047;28;20030;-83
2022/07/28 02:18:55;;;;;;;9.30;7.43;;;16.50;99.90;;;;;;4970190;28;20113;-83
2022/07/28 02:21:24;;;;;;;8.02;6.50;;;16.50;99.90;;;;;;4988067;28;20038;-84
2022/07/28 02:23:52;;;;;;;7.10;6.40;;;16.50;99.90;;;;;;4986650;28;20027;-83
2022/07/28 02:26:26;;;;;;;8.48;7.00;;;16.40;99.90;;;;;;4967646;28;20026;-84
2022/07/28 02:28:56;;;;;;;9.95;8.93;;;16.40;99.90;;;;;;4969579;28;20454;-82
2022/07/28 02:31:27;;;;;;;9.43;6.93;;;16.40;99.90;;;;;;4986757;28;20019;-83
2022/07/28 02:33:59;;;;;;;7.07;6.37;;;16.40;99.90;;;;;;4978153;28;20018;-84
2022/07/28 02:36:30;;;;;;;7.88;7.10;;;16.40;99.90;;;;;;4994447;28;20061;-83
2022/07/28 02:39:01;;;;;;;8.77;6.70;;;16.40;99.90;;;;;;4985900;28;20033;-84
2022/07/28 02:41:30;;;;;;;7.90;7.10;;;16.40;99.90;;;;;;4989640;28;20427;-84
2022/07/28 02:44:11;;;;;;;8.48;7.57;;;16.40;99.90;;;;;;4984936;28;20031;-84
2022/07/28 02:46:43;;;;;;;9.65;7.75;;;16.30;99.90;;;;;;4982293;28;20063;-83
2022/07/28 02:49:14;;;;;;;8.60;7.75;;;16.30;99.90;;;;;;4978821;28;20015;-84
2022/07/28 02:51:42;;;;;;;8.40;7.60;;;16.20;99.90;;;;;;4987265;28;20023;-84
2022/07/28 02:54:09;;;;;;;8.95;8.05;;;16.20;99.90;;;;;;4986534;28;20318;-84
2022/07/28 02:56:36;;;;;;;8.73;7.63;;;16.10;99.90;;;;;;4987362;28;20535;-84
2022/07/28 02:59:03;;;;;;;10.80;8.18;;;16.10;99.90;;;;;;4994531;28;20230;-84
2022/07/28 03:01:30;;;;;;;9.55;7.90;;;16.10;99.90;;;;;;4996777;28;20018;-84
2022/07/28 03:03:56;;;;;;;11.65;7.55;;;16.10;99.90;;;;;;4968145;28;20027;-83
2022/07/28 03:06:22;;;;;;;11.88;7.70;;;16.10;99.90;;;;;;4982088;28;20122;-82
2022/07/28 03:08:51;;;;;;;9.20;8.25;;;16.10;99.90;;;;;;4986908;28;20495;-84
2022/07/28 03:11:17;;;;;;;9.98;7.85;;;16.10;99.90;;;;;;4981020;28;20019;-83
2022/07/28 03:13:43;;;;;;;10.63;7.60;;;16.10;99.90;;;;;;4978763;28;20038;-84
2022/07/28 03:16:09;;;;;;;10.88;8.20;;;16.10;99.90;;;;;;4981425;28;20022;-84
2022/07/28 03:18:34;;;;;;;7.85;7.15;;;16.10;99.90;;;;;;4986565;28;20090;-83
2022/07/28 03:21:00;;;;;;;9.45;7.70;;;16.10;99.90;;;;;;4979962;28;20053;-84
2022/07/28 03:23:33;;;;;;;7.60;6.82;;;16.10;99.90;;;;;;4981656;28;20031;-82
2022/07/28 03:26:11;;;;;;;8.73;7.43;;;16.10;99.90;;;;;;4962170;28;20031;-86
2022/07/28 03:28:38;;;;;;;8.85;7.95;;;16.10;99.90;;;;;;4963273;28;20023;-82
2022/07/28 03:31:08;;;;;;;10.30;8.60;;;16.10;99.90;;;;;;4982854;28;20045;-83
2022/07/28 03:33:34;;;;;;;10.45;8.38;;;16.10;99.90;;;;;;4997583;28;20030;-83
2022/07/28 03:36:05;;;;;;;10.48;7.53;;;16.00;99.90;;;;;;4998387;28;20058;-85
2022/07/28 03:38:54;;;;;;;9.93;7.53;;;16.00;99.90;;;;;;4998062;28;20023;-84
2022/07/28 03:41:21;;;;;;;10.10;8.43;;;16.00;99.90;;;;;;4998031;28;20079;-85
2022/07/28 03:43:49;;;;;;;10.95;8.40;;;15.90;99.90;;;;;;4997317;28;20023;-85
2022/07/28 03:46:15;;;;;;;12.10;8.57;;;15.90;99.90;;;;;;4977143;28;20027;-84
2022/07/28 03:48:41;;;;;;;9.38;7.80;;;15.90;99.90;;;;;;4984459;28;20053;-83
2022/07/28 03:51:07;;;;;;;10.50;8.02;;;15.80;99.90;;;;;;4967635;28;20055;-85
2022/07/28 03:53:32;;;;;;;10.05;9.02;;;15.80;99.90;;;;;;4981470;28;20031;-84
2022/07/28 03:55:58;;;;;;;9.50;7.93;;;15.80;99.90;;;;;;4968427;29;20032;-83
2022/07/28 03:58:25;;;;;;;13.40;9.00;;;15.80;99.90;;;;;;4988565;28;20015;-84
2022/07/28 04:01:02;;;;;;;10.32;7.88;;;15.80;99.90;;;;;;4995436;28;20026;-83
2022/07/28 04:03:29;;;;;;;10.80;7.85;;;15.80;99.90;;;;;;4991038;28;20034;-83
2022/07/28 04:05:55;;;;;;;9.52;7.60;;;15.80;99.90;;;;;;4988057;28;20054;-84
2022/07/28 04:08:21;;;;;;;8.77;7.35;;;15.80;99.90;;;;;;4985055;28;20130;-83
2022/07/28 04:10:48;;;;;;;11.98;8.00;;;15.80;99.90;;;;;;4979612;28;20019;-83
2022/07/28 04:13:13;;;;;;;9.00;7.07;;;15.80;99.90;;;;;;4994372;28;20053;-83
2022/07/28 04:15:39;;;;;;;21.02;8.25;;;15.90;99.90;;;;;;4977943;28;20030;-83
2022/07/28 04:18:06;;;;;;;10.50;8.18;;;15.90;99.90;;;;;;4987666;28;20030;-85
2022/07/28 04:20:31;;;;;;;8.63;7.78;;;15.90;99.90;;;;;;4988231;28;20027;-83
2022/07/28 04:22:57;;;;;;;11.77;8.10;;;15.90;99.90;;;;;;4981216;28;20031;-83
2022/07/28 04:25:25;;;;;;;8.73;7.68;;;15.90;99.90;;;;;;4994255;28;20031;-83
2022/07/28 04:28:01;;;;;;;9.63;8.63;;;15.90;99.90;;;;;;4982324;28;20078;-83
2022/07/28 04:30:27;;;;;;;8.40;7.32;;;15.90;99.90;;;;;;4994413;28;20050;-84
2022/07/28 04:32:55;;;;;;;10.90;8.30;;;15.90;99.90;;;;;;4994776;28;20047;-83
2022/07/28 04:35:26;;;;;;;8.60;7.55;;;15.90;99.90;;;;;;4978691;28;20031;-84
2022/07/28 04:37:54;;;;;;;9.90;8.48;;;15.90;99.90;;;;;;4981140;28;20026;-84
2022/07/28 04:40:21;;;;;;;10.35;8.00;;;15.90;99.90;;;;;;4996723;28;20365;-82
2022/07/28 04:42:46;;;;;;;10.10;7.90;;;15.90;99.90;;;;;;5000115;28;20022;-84
2022/07/28 04:45:12;;;;;;;8.07;7.28;;;15.90;99.90;;;;;;5011956;28;20082;-83
2022/07/28 04:47:38;;;;;;;8.77;7.95;;;15.90;99.90;;;;;;4999957;28;20033;-85
2022/07/28 04:50:06;;;;;;;9.77;7.85;;;15.80;99.90;;;;;;4991202;28;20023;-83
2022/07/28 04:52:32;;;;;;;8.77;7.60;;;15.80;99.90;;;;;;4974530;28;20021;-83
2022/07/28 04:54:58;;;;;;;8.85;7.53;;;15.80;99.90;;;;;;4974297;28;20049;-84
2022/07/28 04:57:27;;;;;;;9.63;7.25;;;15.90;99.90;;;;;;4990182;28;20053;-84
2022/07/28 04:59:53;;;;;;;9.95;7.55;;;15.90;99.90;;;;;;5009629;28;20050;-84
2022/07/28 05:02:19;;;;;;;8.65;7.47;;;15.90;99.90;;;;;;5010875;28;20088;-86
2022/07/28 05:04:45;;;;;;;11.75;8.27;;;16.00;99.90;;;;;;5012452;28;20010;-83
2022/07/28 05:07:11;;;;;;;11.52;7.55;;;16.00;99.90;;;;;;5002675;28;20030;-84
2022/07/28 05:09:36;;;;;;;7.90;6.75;;;16.00;99.90;;;;;;4988201;28;20045;-83
2022/07/28 05:12:04;;;;;;;9.82;7.38;;;16.00;99.90;;;;;;4987249;28;20038;-83
2022/07/28 05:14:30;;;;;;;13.85;7.47;;;16.20;99.90;;;;;;4985256;28;20031;-84
2022/07/28 05:16:56;;;;;;;10.70;7.35;;;16.30;99.90;;;;;;4995361;22;20576;-78
2022/07/28 05:19:22;;;;;;;6.47;5.88;;;16.40;99.90;;;;;;4978388;28;20050;-79
2022/07/28 05:21:47;;;;;;;8.90;6.90;;;17.10;99.90;;;;;;5001950;28;20050;-79
2022/07/28 05:24:13;;;;;;;8.80;6.70;;;17.50;99.90;;;;;;5002082;28;20023;-79
2022/07/28 05:26:39;;;;;;;10.77;7.85;;;17.50;99.90;;;;;;5003475;28;20053;-79
2022/07/28 05:29:05;;;;;;;10.05;6.30;;;17.70;99.90;;;;;;4983101;28;20050;-80
2022/07/28 05:31:31;;;;;;;9.02;6.25;;;17.70;99.90;;;;;;4966110;28;20027;-79
2022/07/28 05:33:57;;;;;;;8.35;6.50;;;17.70;99.90;;;;;;4984046;28;20531;-79
2022/07/28 05:36:23;;;;;;;6.88;5.38;;;17.80;99.90;;;;;;4984880;28;20027;-79
2022/07/28 05:38:48;;;;;;;10.13;6.60;;;18.60;99.90;;;;;;4965412;28;20640;-80
2022/07/28 05:41:14;;;;;;;10.13;5.25;;;20.90;94.50;;;;;;4964978;28;20062;-80
2022/07/28 05:43:40;;;;;;;6.65;4.93;;;23.00;86.80;;;;;;4965934;28;20031;-79
2022/07/28 05:46:06;;;;;;;6.43;5.28;;;24.70;76.60;;;;;;4985000;28;20019;-79
2022/07/28 05:48:32;;;;;;;5.22;4.30;;;25.50;71.20;;;;;;4984746;28;20034;-79
2022/07/28 05:50:58;;;;;;;6.25;3.90;;;26.00;68.80;;;;;;4973716;28;20104;-80
2022/07/28 05:53:23;;;;;;;5.05;4.10;;;27.00;66.60;;;;;;4985436;28;20042;-79
2022/07/28 05:55:49;;;;;;;4.35;3.20;;;27.40;62.40;;;;;;4988053;28;20023;-79
2022/07/28 05:58:16;;;;;;;4.80;4.00;;;27.90;61.70;;;;;;4986050;28;20027;-80
2022/07/28 06:00:42;;;;;;;4.22;3.47;;;29.00;59.20;;;;;;4969076;28;20031;-80
2022/07/28 06:03:07;;;;;;;4.55;3.30;;;29.50;57.20;;;;;;4985994;28;20154;-80
2022/07/28 06:05:35;;;;;;;3.15;2.63;;;30.50;55.70;;;;;;4981851;28;20533;-80
2022/07/28 06:08:01;;;;;;;3.30;3.00;;;31.30;53.80;;;;;;4983410;28;20422;-80
2022/07/28 06:10:57;;;;;;;6.45;3.65;;;31.80;52.80;;;;;;4980817;28;20029;-80
2022/07/28 06:13:14;;;;;;;5.78;4.10;;;31.30;51.10;;;;;;4981486;28;20448;-79
2022/07/28 06:15:40;;;;;;;5.32;4.05;;;30.20;52.80;;;;;;4979564;28;20029;-81
2022/07/28 06:18:06;;;;;;;3.33;3.03;;;29.90;53.10;;;;;;4982165;28;20035;-81
2022/07/28 06:20:32;;;;;;;6.68;3.88;;;29.60;54.20;;;;;;4975756;28;20126;-81
2022/07/28 06:22:58;;;;;;;4.40;3.72;;;29.90;54.30;;;;;;4981657;28;20041;-83
2022/07/28 06:25:27;;;;;;;4.45;3.17;;;30.40;53.60;;;;;;4967994;28;20381;-82
2022/07/28 06:27:55;;;;;;;3.63;3.33;;;31.20;52.20;;;;;;4989284;28;20050;-82
2022/07/28 06:30:22;;;;;;;7.65;4.05;;;31.20;51.30;;;;;;5001543;28;20038;-82
2022/07/28 06:32:48;;;;;;;3.13;2.92;;;30.90;51.10;;;;;;5001409;28;20030;-82
2022/07/28 06:35:15;;;;;;;2.70;2.50;;;30.60;52.30;;;;;;5001887;28;20160;-81
2022/07/28 06:37:51;;;;;;;4.65;3.70;;;31.10;52.20;;;;;;4992403;28;20033;-83
2022/07/28 06:40:18;;;;;;;2.80;2.60;;;31.00;50.50;;;;;;4983334;28;20022;-81
2022/07/28 06:42:45;;;;;;;3.58;3.05;;;31.00;51.90;;;;;;5000752;28;20494;-82
2022/07/28 06:45:12;;;;;;;4.57;3.58;;;30.90;51.10;;;;;;4988402;28;20027;-82
2022/07/28 06:47:38;;;;;;;7.10;3.83;;;30.90;51.50;;;;;;4984060;28;20378;-82
2022/07/28 06:50:05;;;;;;;3.67;3.35;;;30.60;51.10;;;;;;4983116;28;20101;-82
2022/07/28 06:52:32;;;;;;;5.15;3.53;;;30.30;52.90;;;;;;4965194;28;20031;-83
2022/07/28 06:54:59;;;;;;;4.07;3.10;;;29.90;52.60;;;;;;4964604;28;20041;-84
2022/07/28 06:57:25;;;;;;;3.40;3.10;;;30.00;53.80;;;;;;4982430;28;20023;-82
2022/07/28 06:59:51;;;;;;;2.80;2.55;;;30.00;53.00;;;;;;4982334;28;20026;-85
2022/07/28 07:02:17;;;;;;;8.45;3.85;;;30.20;54.10;;;;;;4982622;28;20083;-84
2022/07/28 07:04:43;;;;;;;3.13;2.83;;;30.60;51.60;;;;;;4981997;28;20033;-85
2022/07/28 07:07:09;;;;;;;4.03;3.55;;;30.30;53.10;;;;;;4982390;28;20027;-85
2022/07/28 07:09:35;;;;;;;3.28;2.97;;;30.40;52.60;;;;;;4981089;28;20140;-85
2022/07/28 07:12:02;;;;;;;4.72;3.80;;;30.30;52.70;;;;;;4981007;28;20202;-85
2022/07/28 07:14:28;;;;;;;6.45;3.33;;;30.30;52.60;;;;;;4982310;28;20115;-84
2022/07/28 07:16:53;;;;;;;5.30;3.55;;;30.00;53.00;;;;;;4981261;28;20054;-85
2022/07/28 07:19:20;;;;;;;6.53;4.20;;;29.10;53.60;;;;;;4964138;28;20343;-85
2022/07/28 07:21:46;;;;;;;7.45;3.58;;;26.60;57.50;;;;;;4981247;28;20038;-83
2022/07/28 07:24:12;;;;;;;4.78;4.18;;;24.50;63.10;;;;;;4981851;28;20035;-84
2022/07/28 07:26:38;;;;;;;4.07;3.47;;;23.00;68.80;;;;;;4964341;28;20038;-84
2022/07/28 07:29:06;;;;;;;7.90;3.75;;;22.10;72.60;;;;;;4982267;28;20466;-84
2022/07/28 07:31:36;;;;;;;4.28;3.88;;;21.70;75.20;;;;;;4964957;28;20077;-83
2022/07/28 07:34:02;;;;;;;4.22;3.67;;;21.50;77.70;;;;;;4980906;28;20458;-82
2022/07/28 07:36:28;;;;;;;6.78;4.03;;;21.30;79.30;;;;;;4963895;28;20062;-83
2022/07/28 07:38:54;;;;;;;7.18;4.35;;;21.20;80.30;;;;;;4981194;28;20035;-84
2022/07/28 07:41:19;;;;;;;6.40;3.88;;;21.10;81.20;;;;;;4962564;28;20022;-83
2022/07/28 07:43:46;;;;;;;6.90;4.60;;;21.00;82.20;;;;;;4974795;28;20035;-83
2022/07/28 07:46:12;;;;;;;4.70;4.30;;;20.90;83.00;;;;;;4995249;28;20043;-84
2022/07/28 07:48:38;;;;;;;7.80;3.75;;;20.90;83.70;;;;;;4974091;28;20023;-85
2022/07/28 07:51:04;;;;;;;4.53;4.13;;;21.00;84.40;;;;;;4969549;28;20495;-83
2022/07/28 07:53:30;;;;;;;7.28;3.70;;;21.10;84.00;;;;;;4989468;28;20513;-83
2022/07/28 07:55:56;;;;;;;5.80;4.53;;;21.10;84.70;;;;;;4977127;28;20031;-83
2022/07/28 07:58:22;;;;;;;6.88;4.15;;;21.10;84.60;;;;;;4986625;28;20027;-84
2022/07/28 08:00:52;;;;;;;9.60;5.32;;;21.20;84.80;;;;;;4984354;28;20045;-83
2022/07/28 08:03:18;;;;;;;7.40;4.53;;;21.20;84.50;;;;;;4965171;28;20136;-85
2022/07/28 08:05:43;;;;;;;9.70;5.32;;;21.30;85.30;;;;;;4997324;28;20034;-84
2022/07/28 08:08:09;;;;;;;6.38;4.30;;;21.40;84.20;;;;;;4992639;28;20375;-84
2022/07/28 08:10:36;;;;;;;9.18;4.45;;;21.50;84.30;;;;;;4963281;28;20078;-82
2022/07/28 08:13:03;;;;;;;5.15;4.45;;;21.50;83.70;;;;;;4995783;28;20021;-81
2022/07/28 08:15:29;;;;;;;8.07;5.25;;;21.60;84.00;;;;;;4987863;28;20035;-83
2022/07/28 08:17:55;;;;;;;8.07;4.18;;;21.60;83.50;;;;;;4969372;28;20505;-83
2022/07/28 08:20:20;;;;;;;5.68;4.18;;;21.50;84.50;;;;;;4996119;28;20074;-81
2022/07/28 08:22:48;;;;;;;10.27;5.00;;;21.70;84.60;;;;;;4998228;28;20034;-83
2022/07/28 08:25:14;;;;;;;11.98;4.55;;;22.00;82.40;;;;;;4998193;28;20086;-82
2022/07/28 08:27:40;;;;;;;5.13;4.00;;;22.10;82.00;;;;;;4997690;28;20023;-80
2022/07/28 08:30:06;;;;;;;5.70;4.07;;;22.10;82.20;;;;;;4997440;28;20038;-81
2022/07/28 08:32:32;;;;;;;9.82;5.35;;;22.30;80.90;;;;;;4999042;28;20034;-81
2022/07/28 08:34:58;;;;;;;5.25;4.20;;;22.40;79.70;;;;;;4999022;28;20019;-82
2022/07/28 08:37:23;;;;;;;8.63;5.05;;;22.50;80.20;;;;;;4999204;28;20123;-82
2022/07/28 08:39:52;;;;;;;7.50;4.05;;;22.60;79.20;;;;;;4981911;28;20062;-82
2022/07/28 08:42:24;;;;;;;4.68;3.55;;;22.70;78.20;;;;;;4998097;28;20054;-83
2022/07/28 08:44:57;;;;;;;5.72;4.00;;;22.90;78.20;;;;;;4992292;28;20058;-84
2022/07/28 08:47:25;;;;;;;8.25;4.35;;;23.00;77.70;;;;;;4993908;28;20025;-83
2022/07/28 08:49:54;;;;;;;5.57;4.03;;;23.20;77.30;;;;;;4981339;28;20023;-84
2022/07/28 08:52:22;;;;;;;6.93;4.03;;;23.20;77.50;;;;;;4990250;28;20023;-84
2022/07/28 08:54:49;;;;;;;5.60;3.72;;;23.30;76.20;;;;;;4990304;28;20029;-84
2022/07/28 08:57:25;;;;;;;4.93;3.60;;;23.30;76.70;;;;;;4987066;28;20077;-83
2022/07/28 08:59:51;;;;;;;7.22;3.63;;;23.40;75.50;;;;;;4968938;28;20089;-81
2022/07/28 09:02:18;;;;;;;4.80;3.40;;;23.50;75.50;;;;;;4985711;28;20027;-81
2022/07/28 09:04:45;;;;;;;4.82;4.00;;;23.60;74.50;;;;;;4982361;28;20075;-83
2022/07/28 09:07:10;;;;;;;5.35;3.85;;;23.80;73.90;;;;;;4984995;28;20052;-81
2022/07/28 09:09:39;;;;;;;6.50;4.30;;;23.80;73.30;;;;;;5002272;28;20026;-81
2022/07/28 09:12:05;;;;;;;9.15;4.60;;;23.80;73.30;;;;;;5003784;28;20026;-82
2022/07/28 09:14:32;;;;;;;6.07;3.63;;;23.90;71.90;;;;;;5000533;28;20030;-81
2022/07/28 09:17:00;;;;;;;3.92;3.50;;;23.90;72.60;;;;;;4999275;28;20038;-81
2022/07/28 09:19:27;;;;;;;5.32;3.60;;;24.00;71.40;;;;;;4982414;28;20035;-81
2022/07/28 09:21:55;;;;;;;6.68;4.47;;;24.00;71.40;;;;;;4986291;28;20030;-82
2022/07/28 09:24:35;;;;;;;7.00;3.50;;;24.20;70.80;;;;;;4967396;28;20026;-80
2022/07/28 09:27:11;;;;;;;6.78;3.95;;;24.20;72.10;;;;;;4964322;28;20561;-80
2022/07/28 09:29:39;;;;;;;9.65;3.75;;;24.10;72.60;;;;;;4963403;28;20031;-81
2022/07/28 09:32:07;;;;;;;6.20;4.30;;;24.20;71.70;;;;;;4980988;28;20555;-81
2022/07/28 09:34:44;;;;;;;4.38;3.63;;;24.30;71.50;;;;;;4963602;28;20031;-81
2022/07/28 09:37:19;;;;;;;8.27;4.00;;;24.30;71.80;;;;;;4961513;28;20185;-81
2022/07/28 09:39:46;;;;;;;9.15;4.32;;;24.40;71.60;;;;;;4975884;28;20026;-80
2022/07/28 09:42:13;;;;;;;3.75;2.70;;;;;;;;;;4975349;28;20027;-81
2022/07/28 09:44:38;;;;;;;5.30;3.53;;;24.80;70.10;;;;;;4978419;28;20027;-82
2022/07/28 09:47:25;;;;;;;5.28;3.35;;;25.10;69.60;;;;;;4982010;28;20105;-81
2022/07/28 09:49:51;;;;;;;4.13;3.47;;;25.20;66.90;;;;;;4995045;28;20023;-81
2022/07/28 09:52:34;;;;;;;9.07;3.22;;;25.20;66.00;;;;;;5005414;28;20030;-81
2022/07/28 09:55:08;;;;;;;6.47;3.40;;;25.10;66.60;;;;;;5011016;28;20094;-79
2022/07/28 09:57:36;;;;;;;4.50;2.78;;;25.30;66.00;;;;;;4976449;28;20077;-81
2022/07/28 10:00:08;;;;;;;4.53;3.22;;;25.20;65.10;;;;;;4992514;28;20054;-80
2022/07/28 10:02:35;;;;;;;4.43;2.70;;;25.30;64.80;;;;;;4992190;28;20026;-80
2022/07/28 10:05:01;;;;;;;2.75;2.47;;;25.40;64.80;;;;;;4975814;28;20198;-82
2022/07/28 10:07:28;;;;;;;8.07;3.28;;;25.70;64.50;;;;;;4983697;28;20027;-81
2022/07/28 10:10:01;;;;;;;7.18;2.70;;;26.00;63.60;;;;;;4967752;28;20042;-81
2022/07/28 10:12:32;;;;;;;4.15;3.50;;;26.00;61.60;;;;;;4981621;28;20079;-81
2022/07/28 10:16:09;;;;;;;5.32;3.50;;;25.90;62.70;;;;;;4980810;28;20019;-82
2022/07/28 10:17:55;;;;;;;6.63;3.38;;;25.70;63.80;;;;;;4985218;28;20061;-81
2022/07/28 10:20:22;;;;;;;4.68;3.35;;;25.50;63.60;;;;;;4993710;28;20035;-82
2022/07/28 10:22:48;;;;;;;3.97;2.75;;;25.60;64.40;;;;;;4993852;28;20030;-79
2022/07/28 10:25:15;;;;;;;7.40;3.33;;;25.80;63.80;;;;;;4993508;28;20380;-80
2022/07/28 10:27:43;;;;;;;8.10;3.50;;;26.00;63.30;;;;;;4960040;28;20045;-80
2022/07/28 10:30:11;;;;;;;7.55;2.90;;;26.10;62.50;;;;;;4992435;28;20027;-79
2022/07/28 10:32:45;;;;;;;7.15;3.17;;;26.00;62.50;;;;;;5001166;28;20054;-79
2022/07/28 10:35:14;;;;;;;6.05;3.28;;;26.00;63.20;;;;;;4982285;28;20132;-81
2022/07/28 10:37:57;;;;;;;5.28;2.97;;;26.10;63.60;;;;;;4963244;28;20030;-81
2022/07/28 10:40:26;;;;;;;6.82;3.50;;;26.60;62.00;;;;;;4979347;28;20168;-80
2022/07/28 10:42:53;;;;;;;3.72;3.13;;;26.80;59.60;;;;;;4971413;28;20026;-80
2022/07/28 10:45:20;;;;;;;4.43;2.72;;;26.50;60.30;;;;;;4981195;28;20023;-81
2022/07/28 10:47:47;;;;;;;6.40;3.83;;;26.20;61.50;;;;;;4976164;28;20508;-81
2022/07/28 10:50:13;;;;;;;3.00;2.80;;;26.30;61.00;;;;;;4991766;28;20019;-80
2022/07/28 10:52:40;;;;;;;3.70;2.90;;;26.40;61.30;;;;;;4981975;28;20034;-78
2022/07/28 10:55:27;;;;;;;4.15;3.15;;;26.40;60.90;;;;;;4980302;28;20109;-83
2022/07/28 10:58:05;;;;;;;4.45;2.88;;;26.60;60.90;;;;;;4964632;28;20027;-81
2022/07/28 11:00:34;;;;;;;8.45;3.17;;;27.10;59.40;;;;;;4981212;28;20042;-81
2022/07/28 11:03:01;;;;;;;5.45;3.30;;;27.20;58.20;;;;;;4964389;28;20039;-81
2022/07/28 11:05:35;;;;;;;6.95;3.58;;;27.20;58.40;;;;;;4982979;28;20015;-80
2022/07/28 11:08:07;;;;;;;6.93;2.83;;;27.20;57.60;;;;;;4994315;28;20089;-79
2022/07/28 11:10:47;;;;;;;5.28;2.58;;;27.00;57.40;;;;;;4992542;28;20027;-81
2022/07/28 11:13:31;;;;;;;4.00;2.53;;;26.90;58.30;;;;;;4967731;28;20085;-80
2022/07/28 11:16:18;;;;;;;3.50;2.58;;;27.20;58.20;;;;;;4969224;28;20049;-80
2022/07/28 11:19:11;;;;;;;3.95;2.60;;;27.30;56.70;;;;;;4999000;23;20034;-83
2022/07/28 11:21:57;;;;;;;9.35;4.18;;;27.20;57.00;;;;;;5007673;28;20038;-82
2022/07/28 11:24:23;;;;;;;2.92;2.42;;;27.30;56.70;;;;;;4975259;28;20130;-84
2022/07/28 11:27:16;;;;;;;;;;;;;;;;;;;;;
2022/07/28 11:30:12;;;;;;;;;;;;;;;;;;;;;
2022/07/28 11:33:11;;;;;;;4.82;2.67;;;27.30;56.90;;;;;;4975729;28;20046;-80
2022/07/28 11:35:43;;;;;;;2.25;2.05;;;27.30;55.40;;;;;;4959321;28;20038;-83
2022/07/28 11:38:25;;;;;;;5.43;2.55;;;27.30;55.70;;;;;;4954096;29;20027;-83
2022/07/28 11:40:55;;;;;;;;;;;27.30;55.40;;;;;;4958363;29;20027;-81
2022/07/28 11:46:41;;;;;;;4.35;2.25;;;27.30;55.50;;;;;;4972437;28;20059;-81
2022/07/28 11:49:16;;;;;;;3.65;2.20;;;27.30;55.20;;;;;;4967233;29;20020;-82
2022/07/28 11:52:12;;;;;;;4.22;2.38;;;27.40;55.20;;;;;;4976174;29;20092;-84
2022/07/28 11:54:39;;;;;;;4.60;2.60;;;27.60;54.50;;;;;;4977293;29;20038;-82
2022/07/28 11:57:10;;;;;;;2.75;2.47;;;27.90;54.20;;;;;;4957988;29;20054;-81
2022/07/28 11:59:47;;;;;;;5.90;2.30;;;27.90;54.40;;;;;;4976014;29;20043;-81
2022/07/28 12:02:17;;;;;;;9.05;2.35;;;27.90;53.30;;;;;;4977198;29;20041;-80
2022/07/28 12:04:43;;;;;;;3.20;2.33;;;27.60;54.00;;;;;;4958782;29;20067;-83
2022/07/28 12:07:10;;;;;;;4.32;2.42;;;27.50;54.20;;;;;;4971743;29;20027;-81
2022/07/28 12:09:37;;;;;;;4.28;2.20;;;27.50;55.30;;;;;;4970243;29;20020;-84
2022/07/28 12:12:05;;;;;;;4.90;2.10;;;27.70;54.70;;;;;;4953099;29;20036;-83
2022/07/28 12:14:38;;;;;;;3.75;2.25;;;27.80;52.90;;;;;;4953256;29;20051;-83
2022/07/28 12:17:04;;;;;;;6.10;2.42;;;27.70;53.50;;;;;;4952283;29;20027;-84
2022/07/28 12:19:30;;;;;;;5.80;2.38;;;27.70;53.80;;;;;;4958807;29;20118;-84
2022/07/28 12:21:56;;;;;;;6.85;2.45;;;27.90;53.90;;;;;;4965421;29;20054;-82
2022/07/28 12:24:33;;;;;;;2.20;2.00;;;28.20;53.90;;;;;;4965832;28;20545;-82
2022/07/28 12:26:59;;;;;;;3.38;1.92;;;28.40;52.30;;;;;;4967124;28;20027;-82
2022/07/28 12:29:30;;;;;;;3.88;2.40;;;28.50;52.50;;;;;;4975569;28;20038;-84
2022/07/28 12:32:07;;;;;;;5.72;2.28;;;28.50;51.70;;;;;;4989273;28;20018;-82
2022/07/28 12:34:34;;;;;;;6.93;2.28;;;28.20;53.10;;;;;;4985769;28;20122;-83
2022/07/28 12:37:02;;;;;;;3.50;1.80;;;28.10;53.30;;;;;;4985949;28;20029;-82
2022/07/28 12:39:29;;;;;;;6.88;2.65;;;28.20;53.00;;;;;;4985757;28;20484;-80
2022/07/28 12:42:04;;;;;;;7.53;2.22;;;28.50;52.20;;;;;;4965643;28;20019;-82
2022/07/28 12:44:41;;;;;;;4.90;2.53;;;28.60;52.30;;;;;;4966466;28;20022;-83
2022/07/28 12:47:09;;;;;;;2.40;1.90;;;28.60;52.00;;;;;;4987572;28;20030;-83
2022/07/28 12:49:36;;;;;;;8.07;2.83;;;28.70;52.20;;;;;;4957247;29;20089;-84
2022/07/28 12:52:24;;;;;;;8.63;3.03;;;28.80;51.30;;;;;;4967888;28;20451;-81
2022/07/28 12:54:51;;;;;;;3.10;2.25;;;28.80;51.60;;;;;;4969039;28;20039;-82
2022/07/28 12:57:37;;;;;;;3.15;1.90;;;28.90;51.90;;;;;;4966052;28;20034;-83
2022/07/28 13:00:06;;;;;;;4.32;2.05;;;29.00;51.40;;;;;;4966921;28;20496;-82
2022/07/28 13:02:36;;;;;;;6.85;2.50;;;29.10;51.40;;;;;;4966856;28;20505;-82
2022/07/28 13:05:02;;;;;;;5.68;2.50;;;29.20;50.60;;;;;;4967145;28;20762;-83